Ahmeek, Michigan
Current Conditions -  °F | °C
As of 12:53 PM on Thursday 30 Oct 2014 (Local Time) from KCMX Reporting Station
Light Rain Light Rain  
Wind Chill:   Ceiling: 1300
Heat Index:   Visibility: 7mi
Dew Point:   Wind: 9mph
Humidity: 89%   Direction: 280°W
Pressure: 30"   Gusts: NA
Location:  47.3°N, 88.4°W
Report Text: KCMX 301653Z AUTO 28008KT 7SM -RA SCT008 BKN013 OVC027 04/03 A3000 RMK AO2 SLP169 P0003 T00440028
Loading
Personal Weather Stations






























Interactive Weather Map
Tropical Storm Tracking
New forecast layout! Learn more

10-Day Weather Forecast

Advertisements
Track Severe Weather on mobile